createdAt,value
2019-05-05T00:02:04.541Z,93.20
2019-05-05T00:04:55.112Z,93.20
2019-05-05T00:07:29.253Z,93.30
2019-05-05T00:09:57.331Z,93.60
2019-05-05T00:12:49.993Z,93.60
2019-05-05T00:15:35.329Z,93.80
2019-05-05T00:18:05.302Z,93.70
2019-05-05T00:20:34.381Z,93.70
2019-05-05T00:23:02.189Z,93.40
2019-05-05T00:25:29.658Z,92.80
2019-05-05T00:27:57.205Z,92.50
2019-05-05T00:30:25.021Z,92.70
2019-05-05T00:32:54.712Z,93.00
2019-05-05T00:35:22.074Z,93.10
2019-05-05T00:37:49.558Z,92.70
2019-05-05T00:40:17.095Z,92.70
2019-05-05T00:42:45.606Z,92.30
2019-05-05T00:45:14.784Z,92.10
2019-05-05T00:47:50.782Z,92.40
2019-05-05T00:50:19.503Z,92.90
2019-05-05T00:52:47.034Z,92.90
2019-05-05T00:55:15.149Z,93.00
2019-05-05T00:57:45.150Z,92.80
2019-05-05T01:00:54.817Z,93.10
2019-05-05T01:03:27.169Z,93.40
2019-05-05T01:06:17.850Z,93.10
2019-05-05T01:08:45.431Z,93.30
2019-05-05T01:11:14.584Z,93.90
2019-05-05T01:13:42.727Z,93.80
2019-05-05T01:16:10.453Z,94.20
2019-05-05T01:18:38.008Z,94.10
2019-05-05T01:21:05.632Z,93.90
2019-05-05T01:23:34.950Z,94.10
2019-05-05T01:26:04.883Z,94.10
2019-05-05T01:28:32.569Z,94.20
2019-05-05T01:31:03.061Z,94.20
2019-05-05T01:33:35.841Z,94.40
2019-05-05T01:36:04.624Z,94.20
2019-05-05T01:38:50.441Z,94.10
2019-05-05T01:41:31.599Z,93.90
2019-05-05T01:43:59.114Z,93.50
2019-05-05T01:46:26.605Z,93.40
2019-05-05T01:48:54.941Z,92.70
2019-05-05T01:51:24.675Z,93.30
2019-05-05T01:53:51.965Z,93.10
2019-05-05T01:56:19.402Z,93.10
2019-05-05T01:58:47.826Z,93.10
2019-05-05T02:01:15.391Z,93.60
2019-05-05T02:03:44.592Z,93.60
2019-05-05T02:06:14.114Z,93.50
2019-05-05T02:08:41.643Z,93.60
2019-05-05T02:11:09.102Z,93.50
2019-05-05T02:13:36.639Z,93.60
2019-05-05T02:16:04.739Z,93.40
2019-05-05T02:18:34.387Z,93.70
2019-05-05T02:21:05.131Z,93.90
2019-05-05T02:23:35.112Z,94.00
2019-05-05T02:26:04.639Z,94.20
2019-05-05T02:28:38.664Z,94.30
2019-05-05T02:31:35.974Z,94.20
2019-05-05T02:34:05.488Z,94.30
2019-05-05T02:36:35.533Z,94.40
2019-05-05T02:39:05.225Z,94.40
2019-05-05T02:41:34.804Z,94.30
2019-05-05T02:44:05.058Z,93.80
2019-05-05T02:46:44.659Z,93.80
2019-05-05T02:49:11.894Z,93.80
2019-05-05T02:51:40.663Z,94.00
2019-05-05T02:54:08.741Z,94.20
2019-05-05T02:56:46.168Z,94.20
2019-05-05T02:59:19.529Z,94.30
2019-05-05T03:01:57.695Z,93.50
2019-05-05T03:04:26.034Z,93.80
2019-05-05T03:06:55.395Z,94.10
2019-05-05T03:09:24.984Z,94.20
2019-05-05T03:11:55.552Z,94.20
2019-05-05T03:14:23.818Z,94.40
2019-05-05T03:16:54.049Z,94.50
2019-05-05T03:19:23.696Z,94.60
2019-05-05T03:21:51.721Z,94.40
2019-05-05T03:24:19.238Z,94.30
2019-05-05T03:26:47.553Z,94.40
2019-05-05T03:29:18.850Z,94.30
2019-05-05T03:31:47.677Z,94.20
2019-05-05T03:34:16.311Z,94.20
2019-05-05T03:36:44.534Z,93.50
2019-05-05T03:39:19.707Z,93.40
2019-05-05T03:42:10.208Z,93.50
2019-05-05T03:45:04.196Z,93.30
2019-05-05T03:47:33.718Z,92.90
2019-05-05T03:50:01.261Z,92.90
2019-05-05T03:52:28.993Z,93.10
2019-05-05T03:54:56.883Z,93.00
2019-05-05T03:57:24.780Z,92.90
2019-05-05T03:59:54.598Z,92.40
2019-05-05T04:02:41.198Z,92.40
2019-05-05T04:05:35.669Z,92.20
2019-05-05T04:08:03.899Z,91.70
2019-05-05T04:10:33.431Z,92.00
2019-05-05T04:13:04.498Z,92.10
2019-05-05T04:15:33.715Z,92.20
2019-05-05T04:18:26.718Z,92.20
2019-05-05T04:20:54.231Z,92.20
2019-05-05T04:23:21.720Z,91.70
2019-05-05T04:25:49.797Z,91.50
2019-05-05T04:28:17.352Z,91.60
2019-05-05T04:30:44.964Z,91.60
2019-05-05T04:33:13.788Z,92.10
2019-05-05T04:35:41.790Z,92.20
2019-05-05T04:38:09.250Z,92.40
2019-05-05T04:40:36.827Z,92.30
2019-05-05T04:43:04.266Z,92.30
2019-05-05T04:45:31.746Z,92.40
2019-05-05T04:48:05.953Z,92.60
2019-05-05T04:50:54.295Z,92.50
2019-05-05T04:53:27.139Z,92.50
2019-05-05T04:55:54.577Z,92.30
2019-05-05T04:58:24.137Z,92.20
2019-05-05T05:00:51.618Z,92.40
2019-05-05T05:03:37.314Z,92.40
2019-05-05T05:06:14.711Z,92.40
2019-05-05T05:08:44.210Z,91.90
2019-05-05T05:11:11.674Z,91.60
2019-05-05T05:13:39.167Z,92.20
2019-05-05T05:16:06.654Z,92.20
2019-05-05T05:18:34.506Z,92.00
2019-05-05T05:21:03.978Z,91.90
2019-05-05T05:23:33.897Z,91.70
2019-05-05T05:26:01.072Z,91.80
2019-05-05T05:28:28.489Z,91.00
2019-05-05T05:30:55.936Z,90.80
2019-05-05T05:33:23.943Z,91.10
2019-05-05T05:35:51.930Z,91.40
2019-05-05T05:38:19.357Z,91.00
2019-05-05T05:41:06.333Z,89.90
2019-05-05T05:43:43.946Z,88.80
2019-05-05T05:46:50.546Z,87.70
2019-05-05T05:49:37.561Z,87.90
2019-05-05T05:52:15.108Z,88.20
2019-05-05T05:54:34.604Z,87.90
2019-05-05T05:57:04.155Z,88.40
2019-05-05T05:59:31.488Z,88.60
2019-05-05T06:02:08.946Z,88.80
2019-05-05T06:04:28.256Z,88.20
2019-05-05T06:06:55.701Z,85.80
2019-05-05T06:09:23.779Z,86.00
2019-05-05T06:11:51.476Z,86.90
2019-05-05T06:14:19.138Z,86.80
2019-05-05T06:16:47.115Z,84.90
2019-05-05T06:19:14.657Z,85.50
2019-05-05T06:21:43.946Z,85.30
2019-05-05T06:24:13.496Z,83.20
2019-05-05T06:26:40.879Z,84.00
2019-05-05T06:29:08.308Z,85.10
2019-05-05T06:31:35.768Z,85.10
2019-05-05T06:34:03.801Z,83.80
2019-05-05T06:36:34.011Z,84.00
2019-05-05T06:39:01.826Z,81.50
2019-05-05T06:41:53.946Z,79.30
2019-05-05T06:44:33.664Z,82.30
2019-05-05T06:47:13.539Z,81.50
2019-05-05T06:49:41.191Z,79.50
2019-05-05T06:52:08.838Z,81.90
2019-05-05T06:54:36.265Z,80.20
2019-05-05T06:57:04.582Z,81.70
2019-05-05T06:59:32.351Z,80.60
2019-05-05T07:01:59.825Z,80.00
2019-05-05T07:04:27.349Z,77.80
2019-05-05T07:06:57.148Z,77.10
2019-05-05T07:09:24.585Z,76.30
2019-05-05T07:11:53.950Z,74.80
2019-05-05T07:14:23.499Z,75.90
2019-05-05T07:16:50.942Z,74.10
2019-05-05T07:19:18.503Z,72.60
2019-05-05T07:21:45.957Z,72.80
2019-05-05T07:24:14.701Z,72.20
2019-05-05T07:26:42.218Z,70.40
2019-05-05T07:29:09.679Z,72.40
2019-05-05T07:31:37.220Z,72.20
2019-05-05T07:34:05.235Z,72.40
2019-05-05T07:36:54.624Z,71.10
2019-05-05T07:39:23.650Z,70.90
2019-05-05T07:41:51.013Z,71.80
2019-05-05T07:44:28.340Z,67.20
2019-05-05T07:46:47.997Z,69.40
2019-05-05T07:49:15.576Z,67.90
2019-05-05T07:51:44.201Z,70.70
2019-05-05T07:54:14.471Z,70.00
2019-05-05T07:56:44.215Z,66.80
2019-05-05T07:59:11.793Z,67.70
2019-05-05T08:01:39.388Z,67.00
2019-05-05T08:04:07.179Z,67.90
2019-05-05T08:06:34.975Z,67.20
2019-05-05T08:09:04.509Z,67.00
2019-05-05T08:11:34.220Z,66.60
2019-05-05T08:14:03.950Z,65.90
2019-05-05T08:16:54.503Z,62.90
2019-05-05T08:19:50.783Z,62.50
2019-05-05T08:22:18.351Z,62.30
2019-05-05T08:25:05.391Z,62.70
2019-05-05T08:27:40.386Z,60.70
2019-05-05T08:30:28.108Z,60.50
2019-05-05T08:32:55.786Z,60.10
2019-05-05T08:35:23.784Z,58.30
2019-05-05T08:37:51.416Z,60.10
2019-05-05T08:40:19.174Z,57.80
2019-05-05T08:42:46.946Z,61.20
2019-05-05T08:45:15.142Z,57.70
2019-05-05T08:47:43.613Z,54.80
2019-05-05T08:50:13.568Z,57.00
2019-05-05T08:52:40.902Z,55.10
2019-05-05T08:55:08.867Z,54.20
2019-05-05T08:57:36.801Z,56.10
2019-05-05T09:00:06.603Z,53.50
2019-05-05T09:02:36.157Z,52.20
2019-05-05T09:05:04.325Z,51.60
2019-05-05T09:07:34.658Z,50.20
2019-05-05T09:10:03.890Z,51.60
2019-05-05T09:12:33.781Z,47.80
2019-05-05T09:15:01.275Z,46.20
2019-05-05T09:17:30.058Z,46.40
2019-05-05T09:19:57.501Z,48.20
2019-05-05T09:22:25.018Z,47.80
2019-05-05T09:25:34.490Z,48.20
2019-05-05T09:28:26.176Z,44.90
2019-05-05T09:30:53.900Z,40.90
2019-05-05T09:33:21.870Z,37.70
2019-05-05T09:35:49.465Z,38.50
2019-05-05T09:38:16.995Z,36.80
2019-05-05T09:40:44.605Z,36.90
2019-05-05T09:43:12.110Z,38.60
2019-05-05T09:45:39.710Z,34.50
2019-05-05T09:48:07.444Z,33.00
2019-05-05T09:50:35.006Z,34.50
2019-05-05T09:53:04.161Z,35.30
2019-05-05T09:55:33.554Z,36.30
2019-05-05T09:58:01.371Z,33.90
2019-05-05T10:00:30.580Z,30.40
2019-05-05T10:02:58.454Z,26.00
2019-05-05T10:05:25.877Z,25.50
2019-05-05T10:07:54.478Z,23.80
2019-05-05T10:10:24.243Z,23.40
2019-05-05T10:12:52.980Z,23.00
2019-05-05T10:15:21.059Z,23.30
2019-05-05T10:17:48.575Z,24.90
2019-05-05T10:20:16.150Z,26.80
2019-05-05T10:22:43.896Z,26.60
2019-05-05T10:25:50.654Z,28.60
2019-05-05T10:28:18.335Z,28.50
2019-05-05T10:30:45.893Z,28.30
2019-05-05T10:33:14.254Z,30.10
2019-05-05T10:35:43.766Z,30.10
2019-05-05T10:38:11.628Z,25.30
2019-05-05T10:40:39.146Z,26.10
2019-05-05T10:43:06.754Z,23.00
2019-05-05T10:45:34.482Z,24.60
2019-05-05T10:48:04.042Z,25.40
2019-05-05T10:50:33.859Z,24.70
2019-05-05T10:53:04.567Z,25.60
2019-05-05T10:55:34.368Z,27.00
2019-05-05T10:58:01.581Z,27.90
2019-05-05T11:00:40.645Z,28.90
2019-05-05T11:03:08.327Z,29.80
2019-05-05T11:05:35.842Z,32.80
2019-05-05T11:08:04.803Z,31.90
2019-05-05T11:10:33.965Z,35.00
2019-05-05T11:13:02.040Z,37.10
2019-05-05T11:15:29.802Z,38.50
2019-05-05T11:17:57.333Z,39.10
2019-05-05T11:20:25.327Z,39.10
2019-05-05T11:22:54.204Z,38.30
2019-05-05T11:25:21.933Z,38.20
2019-05-05T11:27:49.897Z,38.80
2019-05-05T11:30:27.093Z,36.90
2019-05-05T11:33:14.281Z,37.40
2019-05-05T11:35:53.831Z,35.00
2019-05-05T11:38:21.345Z,36.60
2019-05-05T11:40:48.836Z,36.60
2019-05-05T11:43:16.294Z,35.60
2019-05-05T11:45:44.012Z,37.60
2019-05-05T11:48:11.699Z,37.90
2019-05-05T11:50:39.304Z,36.20
2019-05-05T11:53:06.912Z,35.60
2019-05-05T11:55:34.553Z,38.20
2019-05-05T11:58:03.575Z,38.20
2019-05-05T12:00:31.307Z,37.90
2019-05-05T12:02:59.039Z,37.70
2019-05-05T12:05:26.608Z,36.30
2019-05-05T12:07:54.203Z,39.50
2019-05-05T12:10:40.914Z,44.10
2019-05-05T12:13:09.971Z,43.50
2019-05-05T12:15:37.676Z,39.50
2019-05-05T12:18:05.453Z,38.90
2019-05-05T12:20:34.431Z,38.00
2019-05-05T12:23:04.471Z,38.80
2019-05-05T12:25:57.399Z,37.10
2019-05-05T12:28:36.034Z,37.90
2019-05-05T12:31:05.575Z,38.20
2019-05-05T12:33:33.680Z,38.20
2019-05-05T12:36:01.184Z,38.60
2019-05-05T12:38:28.717Z,40.10
2019-05-05T12:40:56.256Z,39.80
2019-05-05T12:43:24.686Z,40.00
2019-05-05T12:46:00.778Z,38.80
2019-05-05T12:48:31.834Z,36.90
2019-05-05T12:50:59.430Z,37.70
2019-05-05T12:53:26.966Z,37.60
2019-05-05T12:55:55.773Z,38.00
2019-05-05T12:58:23.342Z,39.10
2019-05-05T13:01:04.514Z,39.40
2019-05-05T13:03:34.471Z,42.00
2019-05-05T13:06:01.681Z,46.80
2019-05-05T13:08:29.283Z,49.60
2019-05-05T13:10:57.992Z,45.90
2019-05-05T13:13:25.684Z,52.20
2019-05-05T13:15:53.721Z,54.30
2019-05-05T13:18:21.557Z,53.10
2019-05-05T13:21:15.088Z,51.00
2019-05-05T13:24:06.135Z,47.80
2019-05-05T13:26:42.568Z,41.20
2019-05-05T13:29:10.271Z,44.90
2019-05-05T13:31:37.982Z,43.80
2019-05-05T13:34:06.096Z,41.20
2019-05-05T13:36:33.665Z,37.40
2019-05-05T13:39:02.295Z,31.50
2019-05-05T13:41:34.016Z,42.30
2019-05-05T13:44:04.480Z,32.50
2019-05-05T13:46:33.933Z,30.60
2019-05-05T13:49:20.260Z,28.40
2019-05-05T13:51:47.941Z,26.50
2019-05-05T13:54:16.767Z,24.60
2019-05-05T13:56:44.563Z,27.20
2019-05-05T13:59:14.054Z,24.40
2019-05-05T14:01:42.096Z,22.50
2019-05-05T14:04:09.903Z,25.90
2019-05-05T14:06:37.614Z,27.20
2019-05-05T14:09:05.568Z,29.30
2019-05-05T14:11:35.155Z,33.40
2019-05-05T14:14:02.697Z,29.80
2019-05-05T14:16:30.257Z,28.30
2019-05-05T14:18:57.740Z,26.10
2019-05-05T14:21:25.272Z,27.00
2019-05-05T14:24:11.382Z,26.30
2019-05-05T14:26:39.103Z,27.70
2019-05-05T14:29:08.940Z,28.30
2019-05-05T14:31:38.310Z,29.20
2019-05-05T14:34:14.202Z,28.80
2019-05-05T14:37:01.215Z,28.20
2019-05-05T14:39:28.692Z,26.50
2019-05-05T14:41:56.274Z,27.70
2019-05-05T14:44:24.099Z,28.60
2019-05-05T14:46:51.763Z,28.40
2019-05-05T14:49:19.232Z,30.10
2019-05-05T14:51:46.685Z,29.90
2019-05-05T14:54:14.866Z,33.10
2019-05-05T14:56:44.040Z,35.60
2019-05-05T14:59:11.806Z,32.20
2019-05-05T15:01:39.617Z,34.10
2019-05-05T15:04:09.466Z,31.30
2019-05-05T15:06:57.715Z,30.20
2019-05-05T15:09:33.630Z,31.80
2019-05-05T15:12:25.964Z,30.70
2019-05-05T15:14:54.715Z,30.70
2019-05-05T15:17:24.503Z,30.40
2019-05-05T15:19:54.038Z,31.60
2019-05-05T15:22:23.942Z,29.10
2019-05-05T15:24:53.634Z,28.30
2019-05-05T15:27:24.010Z,29.50
2019-05-05T15:29:51.254Z,29.40
2019-05-05T15:32:18.811Z,30.90
2019-05-05T15:34:47.387Z,33.40
2019-05-05T15:37:15.055Z,32.70
2019-05-05T15:39:44.134Z,31.30
2019-05-05T15:42:12.216Z,30.70
2019-05-05T15:44:39.920Z,33.60
2019-05-05T15:47:07.673Z,29.80
2019-05-05T15:49:35.239Z,31.30
2019-05-05T15:52:04.481Z,30.90
2019-05-05T15:54:33.973Z,31.50
2019-05-05T15:57:05.367Z,31.20
2019-05-05T15:59:31.447Z,27.20
2019-05-05T16:02:00.581Z,27.70
2019-05-05T16:04:28.687Z,29.90
2019-05-05T16:06:56.447Z,28.40
2019-05-05T16:09:23.985Z,30.40
2019-05-05T16:11:51.486Z,29.20
2019-05-05T16:14:19.488Z,29.40
2019-05-05T16:17:15.751Z,30.70
2019-05-05T16:19:53.695Z,30.90
2019-05-05T16:22:28.837Z,32.40
2019-05-05T16:25:15.504Z,31.90
2019-05-05T16:27:44.541Z,31.20
2019-05-05T16:30:14.446Z,30.10
2019-05-05T16:32:42.198Z,30.20
2019-05-05T16:35:10.012Z,31.20
2019-05-05T16:37:37.474Z,30.90
2019-05-05T16:40:06.214Z,29.30
2019-05-05T16:42:34.839Z,29.20
2019-05-05T16:45:04.469Z,28.40
2019-05-05T16:47:33.611Z,28.30
2019-05-05T16:50:04.092Z,27.70
2019-05-05T16:52:36.897Z,28.50
2019-05-05T16:55:10.226Z,29.00
2019-05-05T16:57:37.832Z,28.80
2019-05-05T17:00:06.251Z,28.80
2019-05-05T17:02:35.874Z,29.00
2019-05-05T17:05:04.465Z,29.00
2019-05-05T17:07:34.221Z,30.60
2019-05-05T17:10:02.028Z,28.90
2019-05-05T17:12:29.969Z,29.00
2019-05-05T17:15:13.089Z,29.80
2019-05-05T17:17:54.048Z,31.80
2019-05-05T17:20:24.564Z,30.20
2019-05-05T17:22:58.324Z,31.50
2019-05-05T17:25:25.771Z,31.20
2019-05-05T17:27:54.635Z,32.80
2019-05-05T17:30:24.511Z,32.50
2019-05-05T17:32:54.313Z,33.70
2019-05-05T17:35:23.912Z,35.10
2019-05-05T17:37:51.258Z,36.20
2019-05-05T17:40:38.258Z,34.70
2019-05-05T17:43:37.350Z,34.40
2019-05-05T17:46:18.439Z,35.60
2019-05-05T17:48:58.049Z,37.10
2019-05-05T17:51:48.502Z,37.40
2019-05-05T17:54:21.846Z,38.00
2019-05-05T17:56:52.312Z,37.90
2019-05-05T17:59:18.923Z,38.90
2019-05-05T18:01:46.541Z,38.50
2019-05-05T18:04:14.353Z,40.30
2019-05-05T18:06:46.862Z,40.80
2019-05-05T18:09:34.468Z,41.20
2019-05-05T18:12:14.916Z,41.40
2019-05-05T18:14:44.214Z,42.40
2019-05-05T18:17:13.567Z,41.40
2019-05-05T18:19:41.230Z,41.20
2019-05-05T18:22:08.829Z,41.80
2019-05-05T18:24:36.871Z,42.30
2019-05-05T18:27:04.859Z,43.30
2019-05-05T18:29:33.988Z,44.60
2019-05-05T18:32:01.737Z,43.50
2019-05-05T18:34:29.318Z,44.60
2019-05-05T18:36:57.036Z,43.80
2019-05-05T18:39:24.817Z,44.30
2019-05-05T18:42:07.278Z,45.60
2019-05-05T18:44:42.060Z,45.20
2019-05-05T18:47:18.535Z,46.80
2019-05-05T18:49:46.716Z,47.20
2019-05-05T18:52:14.262Z,48.70
2019-05-05T18:54:43.672Z,50.20
2019-05-05T18:57:11.527Z,50.50
2019-05-05T18:59:39.133Z,50.50
2019-05-05T19:02:14.372Z,50.70
2019-05-05T19:05:01.559Z,51.90
2019-05-05T19:07:54.415Z,52.90
2019-05-05T19:10:10.216Z,52.80
2019-05-05T19:12:37.827Z,54.60
2019-05-05T19:15:05.823Z,55.10
2019-05-05T19:17:35.167Z,56.30
2019-05-05T19:20:08.543Z,56.40
2019-05-05T19:22:36.267Z,56.70
2019-05-05T19:25:16.285Z,57.00
2019-05-05T19:27:45.414Z,58.00
2019-05-05T19:30:13.816Z,58.40
2019-05-05T19:32:43.547Z,59.20
2019-05-05T19:35:11.921Z,61.60
2019-05-05T19:37:39.551Z,62.30
2019-05-05T19:40:07.244Z,62.70
2019-05-05T19:42:34.942Z,64.00
2019-05-05T19:45:04.312Z,64.40
2019-05-05T19:47:34.052Z,65.00
2019-05-05T19:50:17.303Z,65.90
2019-05-05T19:52:46.616Z,66.80
2019-05-05T19:55:14.164Z,67.40
2019-05-05T19:57:41.726Z,68.50
2019-05-05T20:00:09.744Z,69.20
2019-05-05T20:02:37.774Z,69.80
2019-05-05T20:05:06.022Z,69.80
2019-05-05T20:07:33.977Z,69.60
2019-05-05T20:10:03.876Z,68.90
2019-05-05T20:12:33.413Z,69.40
2019-05-05T20:15:01.534Z,69.20
2019-05-05T20:17:34.398Z,69.60
2019-05-05T20:20:04.337Z,70.00
2019-05-05T20:22:31.798Z,69.80
2019-05-05T20:24:59.394Z,70.00
2019-05-05T20:27:27.127Z,70.20
2019-05-05T20:29:54.641Z,70.00
2019-05-05T20:32:29.538Z,69.60
2019-05-05T20:35:05.710Z,69.80
2019-05-05T20:37:49.235Z,70.00
2019-05-05T20:40:18.216Z,70.70
2019-05-05T20:42:45.892Z,71.80
2019-05-05T20:45:16.477Z,72.80
2019-05-05T20:47:44.305Z,73.70
2019-05-05T20:50:11.973Z,74.30
2019-05-05T20:52:39.503Z,75.40
2019-05-05T20:55:08.287Z,76.70
2019-05-05T20:57:35.898Z,77.40
2019-05-05T21:00:03.944Z,78.20
2019-05-05T21:02:33.938Z,78.20
2019-05-05T21:05:03.845Z,79.10
2019-05-05T21:07:31.198Z,79.10
2019-05-05T21:09:58.717Z,79.70
2019-05-05T21:12:39.130Z,79.10
2019-05-05T21:14:55.700Z,79.10
2019-05-05T21:17:24.217Z,79.50
2019-05-05T21:19:51.934Z,80.40
2019-05-05T21:22:30.537Z,80.40
2019-05-05T21:24:58.397Z,78.60
2019-05-05T21:27:25.925Z,79.70
2019-05-05T21:29:54.399Z,80.40
2019-05-05T21:32:22.246Z,80.20
2019-05-05T21:34:50.047Z,80.20
2019-05-05T21:37:17.671Z,80.40
2019-05-05T21:39:45.552Z,80.20
2019-05-05T21:42:14.073Z,80.40
2019-05-05T21:44:44.014Z,80.80
2019-05-05T21:47:11.377Z,80.80
2019-05-05T21:49:40.075Z,81.20
2019-05-05T21:52:20.385Z,81.70
2019-05-05T21:55:07.420Z,81.90
2019-05-05T21:57:55.830Z,82.10
2019-05-05T22:00:44.130Z,82.80
2019-05-05T22:03:16.161Z,83.00
2019-05-05T22:05:43.802Z,83.20
2019-05-05T22:08:11.278Z,83.20
2019-05-05T22:10:38.746Z,83.40
2019-05-05T22:13:06.197Z,84.00
2019-05-05T22:15:35.717Z,84.10
2019-05-05T22:18:03.744Z,84.30
2019-05-05T22:20:37.079Z,84.10
2019-05-05T22:23:04.621Z,83.60
2019-05-05T22:25:34.087Z,83.20
2019-05-05T22:28:01.746Z,83.60
2019-05-05T22:30:29.358Z,84.10
2019-05-05T22:32:56.953Z,84.50
2019-05-05T22:35:24.465Z,85.10
2019-05-05T22:37:52.103Z,85.50
2019-05-05T22:40:20.957Z,85.60
2019-05-05T22:42:48.871Z,85.80
2019-05-05T22:45:17.041Z,85.80
2019-05-05T22:47:45.678Z,85.60
2019-05-05T22:50:13.913Z,85.60
2019-05-05T22:52:41.684Z,85.80
2019-05-05T22:55:09.760Z,86.00
2019-05-05T22:57:37.482Z,85.80
2019-05-05T23:00:08.059Z,86.00
2019-05-05T23:02:39.659Z,86.00
2019-05-05T23:05:15.035Z,86.00
2019-05-05T23:07:43.836Z,86.20
2019-05-05T23:10:13.995Z,86.20
2019-05-05T23:12:41.457Z,86.40
2019-05-05T23:15:09.745Z,86.60
2019-05-05T23:17:54.327Z,86.90
2019-05-05T23:21:01.534Z,87.10
2019-05-05T23:23:41.180Z,87.90
2019-05-05T23:26:10.026Z,88.10
2019-05-05T23:28:37.618Z,87.90
2019-05-05T23:31:05.126Z,88.20
2019-05-05T23:33:34.464Z,88.20
2019-05-05T23:36:03.985Z,88.10
2019-05-05T23:38:31.440Z,87.90
2019-05-05T23:40:59.038Z,87.90
2019-05-05T23:43:26.579Z,87.90
2019-05-05T23:45:54.283Z,87.90
2019-05-05T23:48:24.002Z,87.70
2019-05-05T23:50:51.338Z,87.90
2019-05-05T23:53:21.166Z,87.70
2019-05-05T23:55:48.668Z,88.40
2019-05-05T23:58:16.250Z,89.20
